createdAt,value
2019-05-05T00:01:07.343Z,77.40
2019-05-05T00:03:45.776Z,77.70
2019-05-05T00:06:16.379Z,78.00
2019-05-05T00:08:47.220Z,77.90
2019-05-05T00:11:28.442Z,77.90
2019-05-05T00:14:01.779Z,78.20
2019-05-05T00:16:36.528Z,78.10
2019-05-05T00:19:07.365Z,77.80
2019-05-05T00:21:37.980Z,77.40
2019-05-05T00:24:08.798Z,77.60
2019-05-05T00:26:39.260Z,78.00
2019-05-05T00:29:09.833Z,78.10
2019-05-05T00:31:40.894Z,78.10
2019-05-05T00:34:12.643Z,77.50
2019-05-05T00:36:44.597Z,77.70
2019-05-05T00:39:16.624Z,77.50
2019-05-05T00:41:48.693Z,77.60
2019-05-05T00:44:19.767Z,77.90
2019-05-05T00:46:57.959Z,78.10
2019-05-05T00:49:37.428Z,78.20
2019-05-05T00:52:05.055Z,78.00
2019-05-05T00:54:36.586Z,77.90
2019-05-05T00:57:27.459Z,77.50
2019-05-05T00:59:58.263Z,77.50
2019-05-05T01:02:30.336Z,77.60
2019-05-05T01:05:18.692Z,77.70
2019-05-05T01:07:49.387Z,77.80
2019-05-05T01:10:40.933Z,77.90
2019-05-05T01:13:11.976Z,78.10
2019-05-05T01:15:44.861Z,77.80
2019-05-05T01:18:17.908Z,77.60
2019-05-05T01:20:48.483Z,77.50
2019-05-05T01:23:19.043Z,77.80
2019-05-05T01:25:49.558Z,77.40
2019-05-05T01:28:20.368Z,77.30
2019-05-05T01:30:52.180Z,77.30
2019-05-05T01:33:28.927Z,77.10
2019-05-05T01:35:59.524Z,76.70
2019-05-05T01:38:44.702Z,77.00
2019-05-05T01:41:16.672Z,76.70
2019-05-05T01:43:47.219Z,76.40
2019-05-05T01:46:17.633Z,76.50
2019-05-05T01:48:48.052Z,77.00
2019-05-05T01:51:18.541Z,77.00
2019-05-05T01:53:49.348Z,76.50
2019-05-05T01:56:20.117Z,76.30
2019-05-05T01:58:51.098Z,76.60
2019-05-05T02:01:21.717Z,75.50
2019-05-05T02:03:52.266Z,75.60
2019-05-05T02:06:24.712Z,75.40
2019-05-05T02:08:54.966Z,76.00
2019-05-05T02:11:25.650Z,75.40
2019-05-05T02:13:56.245Z,75.60
2019-05-05T02:16:27.081Z,75.30
2019-05-05T02:18:58.104Z,75.40
2019-05-05T02:21:28.670Z,75.10
2019-05-05T02:23:59.097Z,75.10
2019-05-05T02:26:29.603Z,75.10
2019-05-05T02:29:14.236Z,74.50
2019-05-05T02:32:05.904Z,73.90
2019-05-05T02:34:35.981Z,73.60
2019-05-05T02:37:06.809Z,73.40
2019-05-05T02:39:42.182Z,74.60
2019-05-05T02:42:11.400Z,73.30
2019-05-05T02:44:45.225Z,72.90
2019-05-05T02:47:19.460Z,73.10
2019-05-05T02:49:50.465Z,73.30
2019-05-05T02:52:24.610Z,74.30
2019-05-05T02:54:56.342Z,72.40
2019-05-05T02:57:27.173Z,72.10
2019-05-05T03:00:02.018Z,72.90
2019-05-05T03:02:35.265Z,73.20
2019-05-05T03:05:06.450Z,71.50
2019-05-05T03:07:39.681Z,72.10
2019-05-05T03:10:10.639Z,72.10
2019-05-05T03:12:43.940Z,70.60
2019-05-05T03:15:19.939Z,70.70
2019-05-05T03:18:04.212Z,71.10
2019-05-05T03:20:35.279Z,70.70
2019-05-05T03:23:06.137Z,70.30
2019-05-05T03:25:36.709Z,69.00
2019-05-05T03:28:27.290Z,69.40
2019-05-05T03:30:58.324Z,68.40
2019-05-05T03:36:28.289Z,68.60
2019-05-05T03:39:01.165Z,68.40
2019-05-05T03:41:36.814Z,67.60
2019-05-05T03:44:14.189Z,67.70
2019-05-05T03:46:54.342Z,67.20
2019-05-05T03:49:25.287Z,67.80
2019-05-05T03:51:56.332Z,67.70
2019-05-05T03:54:27.239Z,67.90
2019-05-05T03:59:47.173Z,66.40
2019-05-05T04:02:31.659Z,67.00
2019-05-05T04:05:04.064Z,66.80
2019-05-05T04:07:38.292Z,66.30
2019-05-05T04:13:04.688Z,65.70
2019-05-05T04:15:39.344Z,64.50
2019-05-05T04:18:20.239Z,64.00
2019-05-05T04:20:50.764Z,64.10
2019-05-05T04:23:21.688Z,63.80
2019-05-05T04:25:54.319Z,64.10
2019-05-05T04:28:24.193Z,63.80
2019-05-05T04:30:55.022Z,63.30
2019-05-05T04:33:25.749Z,63.60
2019-05-05T04:35:56.547Z,65.00
2019-05-05T04:38:27.282Z,62.80
2019-05-05T04:40:58.087Z,63.00
2019-05-05T04:43:37.718Z,62.90
2019-05-05T04:46:08.672Z,63.30
2019-05-05T04:48:44.093Z,62.90
2019-05-05T04:51:15.137Z,62.90
2019-05-05T04:53:47.548Z,62.30
2019-05-05T04:56:18.458Z,63.10
2019-05-05T04:58:54.452Z,62.40
2019-05-05T05:01:25.357Z,62.20
2019-05-05T05:04:00.873Z,62.40
2019-05-05T05:06:31.644Z,63.40
2019-05-05T05:11:54.712Z,61.70
2019-05-05T05:14:26.724Z,61.20
2019-05-05T05:16:58.831Z,63.90
2019-05-05T05:19:29.303Z,64.30
2019-05-05T05:22:02.150Z,64.60
2019-05-05T05:24:34.312Z,64.90
2019-05-05T05:27:18.386Z,64.80
2019-05-05T05:29:49.140Z,64.80
2019-05-05T05:32:19.880Z,64.70
2019-05-05T05:34:50.295Z,64.30
2019-05-05T05:37:21.052Z,64.40
2019-05-05T05:39:54.529Z,64.50
2019-05-05T05:42:25.500Z,64.30
2019-05-05T05:45:06.633Z,64.90
2019-05-05T05:47:55.519Z,64.10
2019-05-05T05:50:27.672Z,64.60
2019-05-05T05:52:58.435Z,64.50
2019-05-05T05:55:29.314Z,64.60
2019-05-05T05:57:59.984Z,64.20
2019-05-05T06:00:31.230Z,64.30
2019-05-05T06:03:03.732Z,64.50
2019-05-05T06:05:34.516Z,64.10
2019-05-05T06:08:05.266Z,64.20
2019-05-05T06:10:36.094Z,63.90
2019-05-05T06:13:06.741Z,63.70
2019-05-05T06:15:37.690Z,64.20
2019-05-05T06:18:08.483Z,64.80
2019-05-05T06:20:39.193Z,64.50
2019-05-05T06:23:09.923Z,64.10
2019-05-05T06:25:41.142Z,63.70
2019-05-05T06:28:11.828Z,64.80
2019-05-05T06:30:44.370Z,64.00
2019-05-05T06:33:17.015Z,64.60
2019-05-05T06:41:37.873Z,63.70
2019-05-05T06:44:10.163Z,63.40
2019-05-05T06:46:45.266Z,63.70
2019-05-05T06:49:15.773Z,64.00
2019-05-05T06:51:46.710Z,63.50
2019-05-05T06:54:17.270Z,63.10
2019-05-05T06:56:50.123Z,63.40
2019-05-05T06:59:19.870Z,63.50
2019-05-05T07:01:50.451Z,64.10
2019-05-05T07:04:21.140Z,64.00
2019-05-05T07:06:53.960Z,64.10
2019-05-05T07:09:26.223Z,63.40
2019-05-05T07:11:58.980Z,64.30
2019-05-05T07:14:29.862Z,64.10
2019-05-05T07:17:00.560Z,64.30
2019-05-05T07:19:31.209Z,64.80
2019-05-05T07:22:03.868Z,64.40
2019-05-05T07:24:34.404Z,63.60
2019-05-05T07:27:06.240Z,63.70
2019-05-05T07:29:37.254Z,64.60
2019-05-05T07:32:09.081Z,63.60
2019-05-05T07:34:54.627Z,63.90
2019-05-05T07:37:25.510Z,63.90
2019-05-05T07:39:56.890Z,64.20
2019-05-05T07:42:28.886Z,64.70
2019-05-05T07:44:59.828Z,64.60
2019-05-05T07:47:30.506Z,65.30
2019-05-05T07:50:01.194Z,64.10
2019-05-05T07:52:34.237Z,64.30
2019-05-05T07:55:04.345Z,64.10
2019-05-05T07:57:35.216Z,63.80
2019-05-05T08:00:08.964Z,63.90
2019-05-05T08:09:27.226Z,63.80
2019-05-05T08:12:00.249Z,63.90
2019-05-05T08:14:31.430Z,63.80
2019-05-05T08:17:38.859Z,64.20
2019-05-05T08:20:10.601Z,63.90
2019-05-05T08:22:41.536Z,64.20
2019-05-05T08:25:14.541Z,64.20
2019-05-05T08:28:05.113Z,63.70
2019-05-05T08:30:49.395Z,64.10
2019-05-05T08:33:19.956Z,64.00
2019-05-05T08:35:50.566Z,64.50
2019-05-05T08:38:24.246Z,65.80
2019-05-05T08:40:57.956Z,65.40
2019-05-05T08:43:28.474Z,65.70
2019-05-05T08:45:59.179Z,65.50
2019-05-05T08:48:29.677Z,65.50
2019-05-05T08:51:00.207Z,66.00
2019-05-05T08:53:42.500Z,66.00
2019-05-05T08:56:06.858Z,66.70
2019-05-05T08:58:37.712Z,67.00
2019-05-05T09:01:08.171Z,66.80
2019-05-05T09:03:38.954Z,66.80
2019-05-05T09:06:10.873Z,67.10
2019-05-05T09:08:41.545Z,66.70
2019-05-05T09:11:14.017Z,66.50
2019-05-05T09:13:44.744Z,66.70
2019-05-05T09:16:15.744Z,67.30
2019-05-05T09:18:59.750Z,67.40
2019-05-05T09:21:30.615Z,67.80
2019-05-05T09:24:05.320Z,67.70
2019-05-05T09:26:44.842Z,67.60
2019-05-05T09:29:27.250Z,67.40
2019-05-05T09:31:59.002Z,67.90
2019-05-05T09:34:30.540Z,68.40
2019-05-05T09:37:03.634Z,69.00
2019-05-05T09:39:40.697Z,68.70
2019-05-05T09:42:11.387Z,68.60
2019-05-05T09:44:43.843Z,68.40
2019-05-05T09:47:14.425Z,68.10
2019-05-05T09:49:45.081Z,68.20
2019-05-05T09:52:16.008Z,69.00
2019-05-05T09:54:46.702Z,68.30
2019-05-05T09:57:17.345Z,68.60
2019-05-05T09:59:49.627Z,68.60
2019-05-05T10:02:38.678Z,69.30
2019-05-05T10:05:10.119Z,67.90
2019-05-05T10:07:40.945Z,67.50
2019-05-05T10:10:13.682Z,68.00
2019-05-05T10:12:45.969Z,68.70
2019-05-05T10:15:17.430Z,69.80
2019-05-05T10:18:06.956Z,68.80
2019-05-05T10:20:37.756Z,69.30
2019-05-05T10:23:08.467Z,69.40
2019-05-05T10:25:40.474Z,69.40
2019-05-05T10:28:10.971Z,69.50
2019-05-05T10:30:43.026Z,69.20
2019-05-05T10:33:14.227Z,69.50
2019-05-05T10:35:44.966Z,69.40
2019-05-05T10:38:15.370Z,69.60
2019-05-05T10:40:48.229Z,69.90
2019-05-05T10:43:18.440Z,69.50
2019-05-05T10:45:48.943Z,69.60
2019-05-05T10:48:19.346Z,70.30
2019-05-05T10:50:49.835Z,70.50
2019-05-05T10:53:20.308Z,70.90
2019-05-05T10:55:51.454Z,70.90
2019-05-05T10:58:24.249Z,70.90
2019-05-05T11:00:56.403Z,71.10
2019-05-05T11:03:26.992Z,71.20
2019-05-05T11:05:59.905Z,70.30
2019-05-05T11:08:34.713Z,69.70
2019-05-05T11:11:04.523Z,69.00
2019-05-05T11:13:37.232Z,69.10
2019-05-05T11:16:07.743Z,69.00
2019-05-05T11:18:38.167Z,69.40
2019-05-05T11:21:08.759Z,69.80
2019-05-05T11:23:39.656Z,69.70
2019-05-05T11:26:10.733Z,69.90
2019-05-05T11:28:44.559Z,70.10
2019-05-05T11:31:15.918Z,70.70
2019-05-05T11:33:48.697Z,71.20
2019-05-05T11:36:24.656Z,71.20
2019-05-05T11:39:05.353Z,71.90
2019-05-05T11:44:45.879Z,71.80
2019-05-05T11:47:19.488Z,72.70
2019-05-05T11:50:09.390Z,73.70
2019-05-05T11:52:40.068Z,74.20
2019-05-05T11:55:12.248Z,74.40
2019-05-05T11:57:46.516Z,74.80
2019-05-05T12:00:18.760Z,75.00
2019-05-05T12:02:49.498Z,74.30
2019-05-05T12:05:21.965Z,73.10
2019-05-05T12:07:54.401Z,73.10
2019-05-05T12:10:29.632Z,73.80
2019-05-05T12:13:01.625Z,74.20
2019-05-05T12:15:34.196Z,74.30
2019-05-05T12:18:07.208Z,74.80
2019-05-05T12:20:39.820Z,75.50
2019-05-05T12:23:13.096Z,76.10
2019-05-05T12:25:56.655Z,76.40
2019-05-05T12:31:29.080Z,77.70
2019-05-05T12:34:00.471Z,78.00
2019-05-05T12:36:31.317Z,78.00
2019-05-05T12:39:03.838Z,78.30
2019-05-05T12:41:34.602Z,78.10
2019-05-05T12:44:06.691Z,77.80
2019-05-05T12:46:49.683Z,78.80
2019-05-05T12:49:17.471Z,78.40
2019-05-05T12:52:08.525Z,78.00
2019-05-05T12:54:40.003Z,77.90
2019-05-05T12:57:13.674Z,77.60
2019-05-05T12:59:53.676Z,77.20
2019-05-05T13:02:24.496Z,77.40
2019-05-05T13:04:55.443Z,77.70
2019-05-05T13:07:26.402Z,77.50
2019-05-05T13:09:57.728Z,77.50
2019-05-05T13:12:29.614Z,78.00
2019-05-05T13:15:00.631Z,78.70
2019-05-05T13:17:31.442Z,79.20
2019-05-05T13:20:24.586Z,79.50
2019-05-05T13:23:31.631Z,80.00
2019-05-05T13:26:14.373Z,79.70
2019-05-05T13:28:44.979Z,80.50
2019-05-05T13:31:15.841Z,80.70
2019-05-05T13:33:47.634Z,80.50
2019-05-05T13:36:21.474Z,80.40
2019-05-05T13:38:54.471Z,81.00
2019-05-05T13:41:24.859Z,81.20
2019-05-05T13:43:57.526Z,81.20
2019-05-05T13:46:33.804Z,81.50
2019-05-05T13:49:21.256Z,81.50
2019-05-05T13:51:53.913Z,81.20
2019-05-05T13:54:24.834Z,80.90
2019-05-05T13:57:00.563Z,81.10
2019-05-05T13:59:30.344Z,81.20
2019-05-05T14:02:01.205Z,81.20
2019-05-05T14:04:32.031Z,81.40
2019-05-05T14:07:04.009Z,81.00
2019-05-05T14:09:35.160Z,81.20
2019-05-05T14:12:06.511Z,81.40
2019-05-05T14:14:37.670Z,80.70
2019-05-05T14:17:08.943Z,79.90
2019-05-05T14:19:39.868Z,80.80
2019-05-05T14:22:10.865Z,80.40
2019-05-05T14:24:59.852Z,80.70
2019-05-05T14:27:28.024Z,80.90
2019-05-05T14:33:11.923Z,81.70
2019-05-05T14:35:50.538Z,82.10
2019-05-05T14:38:38.590Z,82.30
2019-05-05T14:41:13.607Z,82.60
2019-05-05T14:46:37.423Z,83.10
2019-05-05T14:49:13.731Z,82.80
2019-05-05T14:51:47.167Z,83.00
2019-05-05T14:54:19.851Z,83.10
2019-05-05T14:56:54.250Z,83.60
2019-05-05T14:59:26.395Z,83.50
2019-05-05T15:06:03.886Z,82.90
2019-05-05T15:08:38.933Z,82.50
2019-05-05T15:11:11.160Z,82.60
2019-05-05T15:13:43.705Z,83.00
2019-05-05T15:16:14.807Z,82.70
2019-05-05T15:18:45.577Z,83.00
2019-05-05T15:21:23.628Z,83.00
2019-05-05T15:23:55.637Z,82.90
2019-05-05T15:26:26.382Z,83.00
2019-05-05T15:29:01.604Z,83.10
2019-05-05T15:31:29.679Z,83.10
2019-05-05T15:34:00.459Z,83.40
2019-05-05T15:36:33.337Z,83.10
2019-05-05T15:39:04.516Z,82.50
2019-05-05T15:41:35.646Z,82.20
2019-05-05T15:46:59.678Z,82.10
2019-05-05T15:49:31.391Z,82.10
2019-05-05T15:52:04.188Z,81.90
2019-05-05T15:54:34.849Z,81.80
2019-05-05T15:57:09.002Z,81.70
2019-05-05T15:59:39.391Z,81.90
2019-05-05T16:02:10.136Z,82.00
2019-05-05T16:04:40.838Z,82.00
2019-05-05T16:07:13.667Z,82.30
2019-05-05T16:09:44.343Z,82.50
2019-05-05T16:12:16.084Z,82.80
2019-05-05T16:14:48.818Z,83.10
2019-05-05T16:17:24.204Z,83.30
2019-05-05T16:19:56.422Z,83.70
2019-05-05T16:22:34.514Z,84.00
2019-05-05T16:25:14.300Z,84.00
2019-05-05T16:27:45.264Z,84.20
2019-05-05T16:30:17.811Z,84.00
2019-05-05T16:32:48.622Z,84.30
2019-05-05T16:35:20.771Z,84.50
2019-05-05T16:37:52.829Z,84.30
2019-05-05T16:40:27.718Z,84.30
2019-05-05T16:42:58.458Z,84.30
2019-05-05T16:45:30.278Z,84.10
2019-05-05T16:48:01.048Z,84.30
2019-05-05T16:50:34.056Z,84.70
2019-05-05T16:53:06.431Z,84.60
2019-05-05T16:55:38.899Z,84.80
2019-05-05T16:58:28.730Z,84.80
2019-05-05T17:00:59.639Z,85.30
2019-05-05T17:03:30.277Z,85.50
2019-05-05T17:06:00.784Z,85.50
2019-05-05T17:08:31.261Z,86.00
2019-05-05T17:11:02.029Z,86.30
2019-05-05T17:13:51.369Z,86.50
2019-05-05T17:16:35.052Z,86.80
2019-05-05T17:19:22.309Z,86.90
2019-05-05T17:21:54.159Z,87.30
2019-05-05T17:24:24.997Z,87.70
2019-05-05T17:26:55.680Z,88.10
2019-05-05T17:29:27.845Z,87.80
2019-05-05T17:31:58.544Z,88.30
2019-05-05T17:34:29.203Z,88.60
2019-05-05T17:36:59.799Z,89.00
2019-05-05T17:39:31.759Z,89.20
2019-05-05T17:42:10.046Z,89.30
2019-05-05T17:47:47.751Z,89.80
2019-05-05T17:50:19.922Z,89.60
2019-05-05T17:53:07.639Z,89.70
2019-05-05T17:55:41.912Z,90.00
2019-05-05T17:58:13.720Z,89.70
2019-05-05T18:00:49.086Z,89.60
2019-05-05T18:03:19.879Z,89.90
2019-05-05T18:06:10.525Z,89.90
2019-05-05T18:08:58.799Z,90.10
2019-05-05T18:11:54.213Z,90.20
2019-05-05T18:14:29.027Z,90.30
2019-05-05T18:17:00.092Z,90.40
2019-05-05T18:19:30.771Z,90.50
2019-05-05T18:22:01.485Z,90.60
2019-05-05T18:24:33.668Z,90.60
2019-05-05T18:27:04.935Z,90.80
2019-05-05T18:29:35.728Z,90.90
2019-05-05T18:32:26.689Z,90.70
2019-05-05T18:34:57.416Z,90.70
2019-05-05T18:37:28.234Z,90.80
2019-05-05T18:39:59.131Z,90.90
2019-05-05T18:42:30.023Z,91.00
2019-05-05T18:45:03.746Z,90.70
2019-05-05T18:47:34.239Z,90.80
2019-05-05T18:50:05.903Z,90.80
2019-05-05T18:52:37.725Z,90.80
2019-05-05T18:55:10.135Z,90.70
2019-05-05T18:57:40.970Z,90.80
2019-05-05T19:00:13.914Z,90.90
2019-05-05T19:02:53.598Z,90.90
2019-05-05T19:05:43.920Z,90.90
2019-05-05T19:08:15.822Z,91.00
2019-05-05T19:10:46.712Z,90.90
2019-05-05T19:13:17.164Z,90.60
2019-05-05T19:15:47.810Z,90.30
2019-05-05T19:18:19.005Z,90.20
2019-05-05T19:21:11.821Z,90.00
2019-05-05T19:23:44.609Z,90.00
2019-05-05T19:26:14.962Z,89.50
2019-05-05T19:28:49.931Z,89.30
2019-05-05T19:31:18.503Z,89.10
2019-05-05T19:33:49.170Z,89.00
2019-05-05T19:36:19.900Z,88.90
2019-05-05T19:38:51.428Z,88.30
2019-05-05T19:41:23.786Z,87.70
2019-05-05T19:43:55.207Z,87.40
2019-05-05T19:46:44.660Z,87.50
2019-05-05T19:49:15.860Z,87.20
2019-05-05T19:51:47.145Z,86.90
2019-05-05T19:54:17.961Z,86.90
2019-05-05T19:56:48.872Z,86.90
2019-05-05T19:59:19.638Z,87.00
2019-05-05T20:01:50.363Z,86.50
2019-05-05T20:04:21.161Z,83.60
2019-05-05T20:06:51.917Z,82.60
2019-05-05T20:09:24.613Z,81.90
2019-05-05T20:11:54.840Z,82.60
2019-05-05T20:14:25.511Z,80.30
2019-05-05T20:17:00.875Z,80.00
2019-05-05T20:19:36.472Z,79.00
2019-05-05T20:22:05.963Z,79.30
2019-05-05T20:24:36.734Z,78.80
2019-05-05T20:27:07.335Z,78.70
2019-05-05T20:29:37.891Z,77.50
2019-05-05T20:32:08.322Z,77.10
2019-05-05T20:34:46.626Z,77.10
2019-05-05T20:37:18.757Z,77.10
2019-05-05T20:39:49.183Z,76.90
2019-05-05T20:45:14.529Z,76.70
2019-05-05T20:47:46.155Z,76.70
2019-05-05T20:50:16.841Z,75.40
2019-05-05T20:52:47.685Z,75.60
2019-05-05T20:55:18.455Z,76.10
2019-05-05T20:57:49.214Z,75.30
2019-05-05T21:00:20.257Z,75.10
2019-05-05T21:02:50.832Z,75.20
2019-05-05T21:05:21.244Z,74.50
2019-05-05T21:07:51.661Z,74.50
2019-05-05T21:10:24.147Z,74.60
2019-05-05T21:12:54.791Z,74.60
2019-05-05T21:15:26.302Z,74.80
2019-05-05T21:17:57.027Z,74.50
2019-05-05T21:20:27.765Z,74.50
2019-05-05T21:23:03.692Z,74.70
2019-05-05T21:25:40.666Z,74.70
2019-05-05T21:28:11.568Z,74.50
2019-05-05T21:30:41.994Z,73.40
2019-05-05T21:33:12.576Z,73.40
2019-05-05T21:35:44.120Z,73.60
2019-05-05T21:38:14.689Z,73.70
2019-05-05T21:40:45.198Z,73.70
2019-05-05T21:43:15.670Z,73.80
2019-05-05T21:45:46.088Z,74.00
2019-05-05T21:48:17.084Z,74.80
2019-05-05T21:50:55.227Z,74.00
2019-05-05T21:53:27.043Z,73.60
2019-05-05T21:56:14.816Z,73.70
2019-05-05T21:58:46.775Z,73.70
2019-05-05T22:01:18.694Z,73.90
2019-05-05T22:06:39.701Z,74.00
2019-05-05T22:09:10.337Z,74.80
2019-05-05T22:11:40.767Z,74.20
2019-05-05T22:17:04.085Z,74.10
2019-05-05T22:19:36.410Z,74.10
2019-05-05T22:22:08.950Z,74.30
2019-05-05T22:24:39.773Z,74.50
2019-05-05T22:27:10.816Z,74.50
2019-05-05T22:29:44.544Z,74.80
2019-05-05T22:32:14.476Z,74.80
2019-05-05T22:34:45.381Z,74.70
2019-05-05T22:37:17.192Z,75.00
2019-05-05T22:39:47.677Z,74.80
2019-05-05T22:42:18.363Z,75.30
2019-05-05T22:44:49.012Z,75.40
2019-05-05T22:47:19.912Z,75.40
2019-05-05T22:49:50.638Z,75.50
2019-05-05T22:52:23.642Z,75.40
2019-05-05T22:54:53.566Z,76.10
2019-05-05T22:57:24.719Z,75.50
2019-05-05T22:59:55.575Z,75.50
2019-05-05T23:02:27.824Z,75.90
2019-05-05T23:05:04.762Z,75.90
2019-05-05T23:07:35.730Z,75.90
2019-05-05T23:10:07.880Z,75.50
2019-05-05T23:12:38.699Z,75.70
2019-05-05T23:15:10.431Z,75.80
2019-05-05T23:17:45.962Z,75.90
2019-05-05T23:20:29.819Z,75.70
2019-05-05T23:23:14.570Z,75.70
2019-05-05T23:25:49.536Z,75.70
2019-05-05T23:28:20.301Z,75.60
2019-05-05T23:30:51.077Z,75.60
2019-05-05T23:33:21.813Z,75.40
2019-05-05T23:35:54.893Z,75.40
2019-05-05T23:38:24.880Z,75.70
2019-05-05T23:40:55.478Z,76.40
2019-05-05T23:43:26.262Z,75.90
2019-05-05T23:45:56.948Z,75.90
2019-05-05T23:48:27.668Z,76.10
2019-05-05T23:51:00.022Z,76.30
2019-05-05T23:53:30.590Z,76.20
2019-05-05T23:56:01.259Z,76.70
2019-05-05T23:58:32.051Z,76.70
